sensor_id;sensor_type;location;lat;lon;timestamp;P1;durP1;ratioP1;P2;durP2;ratioP2
64674;SDS011;51090;51.512;11.332;2023-07-13T00:01:51;0.90;;;0.60;;
64674;SDS011;51090;51.512;11.332;2023-07-13T00:04:17;1.58;;;0.60;;
64674;SDS011;51090;51.512;11.332;2023-07-13T00:06:45;1.02;;;0.60;;
64674;SDS011;51090;51.512;11.332;2023-07-13T00:09:12;1.17;;;0.50;;
64674;SDS011;51090;51.512;11.332;2023-07-13T00:11:42;1.25;;;0.52;;
64674;SDS011;51090;51.512;11.332;2023-07-13T00:14:10;1.98;;;0.70;;
64674;SDS011;51090;51.512;11.332;2023-07-13T00:16:37;1.25;;;0.43;;
64674;SDS011;51090;51.512;11.332;2023-07-13T00:19:05;1.67;;;0.40;;
64674;SDS011;51090;51.512;11.332;2023-07-13T00:21:31;0.90;;;0.60;;
64674;SDS011;51090;51.512;11.332;2023-07-13T00:23:57;0.88;;;0.60;;
64674;SDS011;51090;51.512;11.332;2023-07-13T00:26:24;1.75;;;0.70;;
64674;SDS011;51090;51.512;11.332;2023-07-13T00:28:50;0.65;;;0.50;;
64674;SDS011;51090;51.512;11.332;2023-07-13T00:31:16;2.88;;;1.13;;
64674;SDS011;51090;51.512;11.332;2023-07-13T00:33:43;3.95;;;0.88;;
64674;SDS011;51090;51.512;11.332;2023-07-13T00:36:09;0.73;;;0.60;;
64674;SDS011;51090;51.512;11.332;2023-07-13T00:38:36;1.95;;;0.80;;
64674;SDS011;51090;51.512;11.332;2023-07-13T00:41:03;0.85;;;0.50;;
64674;SDS011;51090;51.512;11.332;2023-07-13T00:43:29;1.83;;;0.52;;
64674;SDS011;51090;51.512;11.332;2023-07-13T00:48:40;0.95;;;0.50;;
64674;SDS011;51090;51.512;11.332;2023-07-13T00:51:08;1.02;;;0.60;;
64674;SDS011;51090;51.512;11.332;2023-07-13T00:53:35;0.98;;;0.57;;
64674;SDS011;51090;51.512;11.332;2023-07-13T00:56:02;0.82;;;0.57;;
64674;SDS011;51090;51.512;11.332;2023-07-13T00:58:29;0.70;;;0.50;;
64674;SDS011;51090;51.512;11.332;2023-07-13T01:00:55;0.60;;;0.50;;
64674;SDS011;51090;51.512;11.332;2023-07-13T01:03:21;1.98;;;0.75;;
64674;SDS011;51090;51.512;11.332;2023-07-13T01:12:32;1.70;;;0.73;;
64674;SDS011;51090;51.512;11.332;2023-07-13T01:15:00;1.30;;;0.90;;
64674;SDS011;51090;51.512;11.332;2023-07-13T01:17:27;1.73;;;0.60;;
64674;SDS011;51090;51.512;11.332;2023-07-13T01:19:54;1.50;;;0.77;;
64674;SDS011;51090;51.512;11.332;2023-07-13T01:22:20;1.27;;;0.70;;
64674;SDS011;51090;51.512;11.332;2023-07-13T01:24:50;1.25;;;0.52;;
64674;SDS011;51090;51.512;11.332;2023-07-13T01:27:20;4.03;;;1.10;;
64674;SDS011;51090;51.512;11.332;2023-07-13T01:29:50;1.07;;;0.57;;
64674;SDS011;51090;51.512;11.332;2023-07-13T01:32:19;1.20;;;0.73;;
64674;SDS011;51090;51.512;11.332;2023-07-13T01:34:49;3.20;;;0.68;;
64674;SDS011;51090;51.512;11.332;2023-07-13T01:37:19;0.82;;;0.60;;
64674;SDS011;51090;51.512;11.332;2023-07-13T01:39:45;2.08;;;1.25;;
64674;SDS011;51090;51.512;11.332;2023-07-13T01:42:12;4.97;;;1.55;;
64674;SDS011;51090;51.512;11.332;2023-07-13T01:44:38;4.38;;;0.80;;
64674;SDS011;51090;51.512;11.332;2023-07-13T01:47:04;0.82;;;0.70;;
64674;SDS011;51090;51.512;11.332;2023-07-13T01:49:31;1.13;;;0.60;;
64674;SDS011;51090;51.512;11.332;2023-07-13T01:51:57;1.45;;;0.73;;
64674;SDS011;51090;51.512;11.332;2023-07-13T01:54:23;6.20;;;0.88;;
64674;SDS011;51090;51.512;11.332;2023-07-13T01:56:49;1.40;;;0.80;;
64674;SDS011;51090;51.512;11.332;2023-07-13T01:59:15;2.65;;;0.73;;
64674;SDS011;51090;51.512;11.332;2023-07-13T02:01:41;2.95;;;0.60;;
64674;SDS011;51090;51.512;11.332;2023-07-13T02:04:07;1.75;;;0.75;;
64674;SDS011;51090;51.512;11.332;2023-07-13T02:06:33;0.90;;;0.63;;
64674;SDS011;51090;51.512;11.332;2023-07-13T02:08:59;0.93;;;0.60;;
64674;SDS011;51090;51.512;11.332;2023-07-13T02:11:25;1.75;;;0.95;;
64674;SDS011;51090;51.512;11.332;2023-07-13T02:13:57;0.63;;;0.50;;
64674;SDS011;51090;51.512;11.332;2023-07-13T02:16:24;0.68;;;0.60;;
64674;SDS011;51090;51.512;11.332;2023-07-13T02:18:50;0.70;;;0.60;;
64674;SDS011;51090;51.512;11.332;2023-07-13T02:21:17;0.95;;;0.50;;
64674;SDS011;51090;51.512;11.332;2023-07-13T02:23:43;1.58;;;0.43;;
64674;SDS011;51090;51.512;11.332;2023-07-13T02:26:09;0.80;;;0.70;;
64674;SDS011;51090;51.512;11.332;2023-07-13T02:28:35;0.90;;;0.70;;
64674;SDS011;51090;51.512;11.332;2023-07-13T02:31:08;0.70;;;0.60;;
64674;SDS011;51090;51.512;11.332;2023-07-13T02:33:36;1.13;;;0.70;;
64674;SDS011;51090;51.512;11.332;2023-07-13T02:36:02;1.05;;;0.70;;
64674;SDS011;51090;51.512;11.332;2023-07-13T02:38:30;1.23;;;0.70;;
64674;SDS011;51090;51.512;11.332;2023-07-13T02:40:58;1.05;;;0.73;;
64674;SDS011;51090;51.512;11.332;2023-07-13T02:43:24;1.48;;;0.90;;
64674;SDS011;51090;51.512;11.332;2023-07-13T02:45:51;0.70;;;0.60;;
64674;SDS011;51090;51.512;11.332;2023-07-13T02:48:17;0.93;;;0.70;;
64674;SDS011;51090;51.512;11.332;2023-07-13T02:50:44;1.95;;;0.82;;
64674;SDS011;51090;51.512;11.332;2023-07-13T02:53:10;1.27;;;0.80;;
64674;SDS011;51090;51.512;11.332;2023-07-13T02:55:36;0.45;;;0.40;;
64674;SDS011;51090;51.512;11.332;2023-07-13T02:58:02;1.45;;;0.75;;
64674;SDS011;51090;51.512;11.332;2023-07-13T03:00:28;2.55;;;0.77;;
64674;SDS011;51090;51.512;11.332;2023-07-13T03:02:54;1.27;;;0.50;;
64674;SDS011;51090;51.512;11.332;2023-07-13T03:05:22;1.20;;;0.88;;
64674;SDS011;51090;51.512;11.332;2023-07-13T03:07:48;0.50;;;0.50;;
64674;SDS011;51090;51.512;11.332;2023-07-13T03:10:14;1.02;;;0.70;;
64674;SDS011;51090;51.512;11.332;2023-07-13T03:12:41;1.40;;;0.75;;
64674;SDS011;51090;51.512;11.332;2023-07-13T03:15:07;1.65;;;0.70;;
64674;SDS011;51090;51.512;11.332;2023-07-13T03:17:33;0.60;;;0.50;;
64674;SDS011;51090;51.512;11.332;2023-07-13T03:19:59;0.90;;;0.50;;
64674;SDS011;51090;51.512;11.332;2023-07-13T03:22:25;1.48;;;0.80;;
64674;SDS011;51090;51.512;11.332;2023-07-13T03:24:52;1.42;;;0.63;;
64674;SDS011;51090;51.512;11.332;2023-07-13T03:27:19;3.00;;;0.80;;
64674;SDS011;51090;51.512;11.332;2023-07-13T03:29:45;1.50;;;0.80;;
64674;SDS011;51090;51.512;11.332;2023-07-13T03:32:11;1.67;;;0.82;;
64674;SDS011;51090;51.512;11.332;2023-07-13T03:34:37;1.27;;;0.80;;
64674;SDS011;51090;51.512;11.332;2023-07-13T03:37:03;0.88;;;0.70;;
64674;SDS011;51090;51.512;11.332;2023-07-13T03:39:30;2.42;;;0.80;;
64674;SDS011;51090;51.512;11.332;2023-07-13T03:41:56;0.73;;;0.55;;
64674;SDS011;51090;51.512;11.332;2023-07-13T03:44:22;3.38;;;0.95;;
64674;SDS011;51090;51.512;11.332;2023-07-13T03:46:48;0.90;;;0.65;;
64674;SDS011;51090;51.512;11.332;2023-07-13T03:49:14;2.33;;;0.88;;
64674;SDS011;51090;51.512;11.332;2023-07-13T03:51:40;1.50;;;0.77;;
64674;SDS011;51090;51.512;11.332;2023-07-13T03:54:06;0.80;;;0.68;;
64674;SDS011;51090;51.512;11.332;2023-07-13T03:56:32;1.08;;;0.75;;
64674;SDS011;51090;51.512;11.332;2023-07-13T03:58:58;0.47;;;0.45;;
64674;SDS011;51090;51.512;11.332;2023-07-13T04:01:25;3.60;;;0.90;;
64674;SDS011;51090;51.512;11.332;2023-07-13T04:03:51;0.70;;;0.70;;
64674;SDS011;51090;51.512;11.332;2023-07-13T04:06:19;1.05;;;0.80;;
64674;SDS011;51090;51.512;11.332;2023-07-13T04:08:51;0.70;;;0.60;;
64674;SDS011;51090;51.512;11.332;2023-07-13T04:11:19;1.00;;;0.77;;
64674;SDS011;51090;51.512;11.332;2023-07-13T04:13:46;2.80;;;0.65;;
64674;SDS011;51090;51.512;11.332;2023-07-13T04:16:14;2.55;;;0.80;;
64674;SDS011;51090;51.512;11.332;2023-07-13T04:18:41;3.28;;;0.82;;
64674;SDS011;51090;51.512;11.332;2023-07-13T04:21:07;1.30;;;0.57;;
64674;SDS011;51090;51.512;11.332;2023-07-13T04:23:34;0.80;;;0.80;;
64674;SDS011;51090;51.512;11.332;2023-07-13T04:26:01;2.90;;;0.82;;
64674;SDS011;51090;51.512;11.332;2023-07-13T04:28:27;1.10;;;0.68;;
64674;SDS011;51090;51.512;11.332;2023-07-13T04:30:53;1.30;;;0.63;;
64674;SDS011;51090;51.512;11.332;2023-07-13T04:33:20;1.08;;;0.98;;
64674;SDS011;51090;51.512;11.332;2023-07-13T04:35:48;0.80;;;0.70;;
64674;SDS011;51090;51.512;11.332;2023-07-13T04:38:19;1.17;;;0.73;;
64674;SDS011;51090;51.512;11.332;2023-07-13T04:40:45;1.20;;;0.63;;
64674;SDS011;51090;51.512;11.332;2023-07-13T04:43:12;0.93;;;0.63;;
64674;SDS011;51090;51.512;11.332;2023-07-13T04:45:38;1.42;;;1.08;;
64674;SDS011;51090;51.512;11.332;2023-07-13T04:48:04;1.65;;;1.00;;
64674;SDS011;51090;51.512;11.332;2023-07-13T04:50:31;1.38;;;0.75;;
64674;SDS011;51090;51.512;11.332;2023-07-13T04:52:57;4.55;;;0.77;;
64674;SDS011;51090;51.512;11.332;2023-07-13T04:55:24;1.55;;;0.95;;
64674;SDS011;51090;51.512;11.332;2023-07-13T04:57:50;1.60;;;0.70;;
64674;SDS011;51090;51.512;11.332;2023-07-13T05:00:17;0.60;;;0.60;;
64674;SDS011;51090;51.512;11.332;2023-07-13T05:02:43;1.00;;;0.70;;
64674;SDS011;51090;51.512;11.332;2023-07-13T05:05:13;1.23;;;0.80;;
64674;SDS011;51090;51.512;11.332;2023-07-13T05:07:39;1.13;;;0.60;;
64674;SDS011;51090;51.512;11.332;2023-07-13T05:10:05;2.47;;;1.10;;
64674;SDS011;51090;51.512;11.332;2023-07-13T05:12:32;0.70;;;0.70;;
64674;SDS011;51090;51.512;11.332;2023-07-13T05:14:58;1.85;;;1.10;;
64674;SDS011;51090;51.512;11.332;2023-07-13T05:17:24;1.27;;;0.77;;
64674;SDS011;51090;51.512;11.332;2023-07-13T05:19:50;1.35;;;0.73;;
64674;SDS011;51090;51.512;11.332;2023-07-13T05:22:16;1.38;;;0.90;;
64674;SDS011;51090;51.512;11.332;2023-07-13T05:24:42;0.77;;;0.70;;
64674;SDS011;51090;51.512;11.332;2023-07-13T05:27:08;2.92;;;1.00;;
64674;SDS011;51090;51.512;11.332;2023-07-13T05:29:34;1.10;;;0.60;;
64674;SDS011;51090;51.512;11.332;2023-07-13T05:32:00;0.85;;;0.60;;
64674;SDS011;51090;51.512;11.332;2023-07-13T05:34:26;4.07;;;1.13;;
64674;SDS011;51090;51.512;11.332;2023-07-13T05:36:52;1.77;;;0.73;;
64674;SDS011;51090;51.512;11.332;2023-07-13T05:39:18;2.63;;;1.08;;
64674;SDS011;51090;51.512;11.332;2023-07-13T05:41:44;8.35;;;3.58;;
64674;SDS011;51090;51.512;11.332;2023-07-13T05:44:11;5.95;;;1.98;;
64674;SDS011;51090;51.512;11.332;2023-07-13T05:46:37;4.38;;;1.77;;
64674;SDS011;51090;51.512;11.332;2023-07-13T05:49:03;2.47;;;1.48;;
64674;SDS011;51090;51.512;11.332;2023-07-13T05:51:29;6.65;;;1.10;;
64674;SDS011;51090;51.512;11.332;2023-07-13T05:53:55;1.10;;;0.88;;
64674;SDS011;51090;51.512;11.332;2023-07-13T05:56:21;2.80;;;1.25;;
64674;SDS011;51090;51.512;11.332;2023-07-13T05:58:47;1.65;;;0.88;;
64674;SDS011;51090;51.512;11.332;2023-07-13T06:01:14;1.50;;;0.93;;
64674;SDS011;51090;51.512;11.332;2023-07-13T06:03:41;1.75;;;0.80;;
64674;SDS011;51090;51.512;11.332;2023-07-13T06:06:07;4.72;;;0.80;;
64674;SDS011;51090;51.512;11.332;2023-07-13T06:08:35;1.65;;;0.63;;
64674;SDS011;51090;51.512;11.332;2023-07-13T06:11:09;3.40;;;0.90;;
64674;SDS011;51090;51.512;11.332;2023-07-13T06:13:44;1.58;;;0.77;;
64674;SDS011;51090;51.512;11.332;2023-07-13T06:16:10;2.35;;;1.00;;
64674;SDS011;51090;51.512;11.332;2023-07-13T06:18:36;3.10;;;1.27;;
64674;SDS011;51090;51.512;11.332;2023-07-13T06:21:06;2.10;;;1.00;;
64674;SDS011;51090;51.512;11.332;2023-07-13T06:23:38;2.65;;;1.52;;
64674;SDS011;51090;51.512;11.332;2023-07-13T06:26:04;3.58;;;1.35;;
64674;SDS011;51090;51.512;11.332;2023-07-13T06:28:31;2.50;;;1.10;;
64674;SDS011;51090;51.512;11.332;2023-07-13T06:30:58;2.45;;;1.10;;
64674;SDS011;51090;51.512;11.332;2023-07-13T06:33:24;1.77;;;0.88;;
64674;SDS011;51090;51.512;11.332;2023-07-13T06:35:50;9.25;;;1.27;;
64674;SDS011;51090;51.512;11.332;2023-07-13T06:38:16;2.53;;;0.70;;
64674;SDS011;51090;51.512;11.332;2023-07-13T06:40:42;0.88;;;0.80;;
64674;SDS011;51090;51.512;11.332;2023-07-13T06:43:07;2.92;;;1.23;;
64674;SDS011;51090;51.512;11.332;2023-07-13T06:45:40;1.55;;;1.00;;
64674;SDS011;51090;51.512;11.332;2023-07-13T06:48:12;2.05;;;0.88;;
64674;SDS011;51090;51.512;11.332;2023-07-13T06:50:38;1.40;;;0.90;;
64674;SDS011;51090;51.512;11.332;2023-07-13T06:53:04;0.93;;;0.68;;
64674;SDS011;51090;51.512;11.332;2023-07-13T06:55:30;1.63;;;1.02;;
64674;SDS011;51090;51.512;11.332;2023-07-13T06:57:55;3.97;;;1.30;;
64674;SDS011;51090;51.512;11.332;2023-07-13T07:00:22;1.92;;;0.80;;
64674;SDS011;51090;51.512;11.332;2023-07-13T07:02:48;0.98;;;0.88;;
64674;SDS011;51090;51.512;11.332;2023-07-13T07:05:14;0.88;;;0.77;;
64674;SDS011;51090;51.512;11.332;2023-07-13T07:07:39;3.63;;;0.73;;
64674;SDS011;51090;51.512;11.332;2023-07-13T07:10:05;4.03;;;0.90;;
64674;SDS011;51090;51.512;11.332;2023-07-13T07:12:31;1.30;;;0.77;;
64674;SDS011;51090;51.512;11.332;2023-07-13T07:14:57;1.70;;;0.95;;
64674;SDS011;51090;51.512;11.332;2023-07-13T07:17:23;1.10;;;0.55;;
64674;SDS011;51090;51.512;11.332;2023-07-13T07:19:50;1.23;;;0.65;;
64674;SDS011;51090;51.512;11.332;2023-07-13T07:22:15;1.27;;;0.80;;
64674;SDS011;51090;51.512;11.332;2023-07-13T07:24:41;2.55;;;0.80;;
64674;SDS011;51090;51.512;11.332;2023-07-13T07:27:07;1.42;;;0.60;;
64674;SDS011;51090;51.512;11.332;2023-07-13T07:29:32;1.70;;;0.90;;
64674;SDS011;51090;51.512;11.332;2023-07-13T07:31:59;2.47;;;0.90;;
64674;SDS011;51090;51.512;11.332;2023-07-13T07:34:25;1.50;;;0.63;;
64674;SDS011;51090;51.512;11.332;2023-07-13T07:36:51;2.38;;;1.20;;
64674;SDS011;51090;51.512;11.332;2023-07-13T07:39:19;4.25;;;1.20;;
64674;SDS011;51090;51.512;11.332;2023-07-13T07:41:44;2.42;;;0.93;;
64674;SDS011;51090;51.512;11.332;2023-07-13T07:44:10;2.70;;;1.08;;
64674;SDS011;51090;51.512;11.332;2023-07-13T07:46:36;3.55;;;1.10;;
64674;SDS011;51090;51.512;11.332;2023-07-13T07:49:01;1.42;;;0.77;;
64674;SDS011;51090;51.512;11.332;2023-07-13T07:51:27;3.80;;;1.10;;
64674;SDS011;51090;51.512;11.332;2023-07-13T07:53:53;1.40;;;0.85;;
64674;SDS011;51090;51.512;11.332;2023-07-13T07:56:19;1.38;;;0.68;;
64674;SDS011;51090;51.512;11.332;2023-07-13T07:58:44;2.17;;;0.80;;
64674;SDS011;51090;51.512;11.332;2023-07-13T08:01:10;2.00;;;1.00;;
64674;SDS011;51090;51.512;11.332;2023-07-13T08:03:36;1.08;;;0.60;;
64674;SDS011;51090;51.512;11.332;2023-07-13T08:06:01;2.38;;;1.00;;
64674;SDS011;51090;51.512;11.332;2023-07-13T08:08:27;1.13;;;0.68;;
64674;SDS011;51090;51.512;11.332;2023-07-13T08:10:53;1.27;;;0.80;;
64674;SDS011;51090;51.512;11.332;2023-07-13T08:13:19;11.40;;;1.45;;
64674;SDS011;51090;51.512;11.332;2023-07-13T08:15:45;3.95;;;1.05;;
64674;SDS011;51090;51.512;11.332;2023-07-13T08:18:12;2.35;;;1.00;;
64674;SDS011;51090;51.512;11.332;2023-07-13T08:20:38;2.63;;;1.15;;
64674;SDS011;51090;51.512;11.332;2023-07-13T08:23:04;0.80;;;0.60;;
64674;SDS011;51090;51.512;11.332;2023-07-13T08:25:31;6.68;;;0.93;;
64674;SDS011;51090;51.512;11.332;2023-07-13T08:27:57;1.25;;;0.65;;
64674;SDS011;51090;51.512;11.332;2023-07-13T08:30:22;0.73;;;0.63;;
64674;SDS011;51090;51.512;11.332;2023-07-13T08:32:49;1.77;;;1.13;;
64674;SDS011;51090;51.512;11.332;2023-07-13T08:35:15;1.55;;;1.00;;
64674;SDS011;51090;51.512;11.332;2023-07-13T08:37:41;1.85;;;0.90;;
64674;SDS011;51090;51.512;11.332;2023-07-13T08:40:08;1.27;;;0.88;;
64674;SDS011;51090;51.512;11.332;2023-07-13T08:42:36;1.58;;;0.80;;
64674;SDS011;51090;51.512;11.332;2023-07-13T08:45:42;3.03;;;1.00;;
64674;SDS011;51090;51.512;11.332;2023-07-13T08:48:11;2.70;;;1.10;;
64674;SDS011;51090;51.512;11.332;2023-07-13T08:51:31;0.73;;;0.63;;
64674;SDS011;51090;51.512;11.332;2023-07-13T08:53:49;1.90;;;0.52;;
64674;SDS011;51090;51.512;11.332;2023-07-13T08:56:21;0.82;;;0.80;;
64674;SDS011;51090;51.512;11.332;2023-07-13T08:58:53;1.45;;;0.60;;
64674;SDS011;51090;51.512;11.332;2023-07-13T09:01:33;7.45;;;0.90;;
64674;SDS011;51090;51.512;11.332;2023-07-13T09:04:16;1.13;;;0.60;;
64674;SDS011;51090;51.512;11.332;2023-07-13T09:09:26;1.02;;;0.50;;
64674;SDS011;51090;51.512;11.332;2023-07-13T09:12:23;1.40;;;0.80;;
64674;SDS011;51090;51.512;11.332;2023-07-13T09:15:05;0.98;;;0.63;;
64674;SDS011;51090;51.512;11.332;2023-07-13T09:17:57;1.10;;;0.60;;
64674;SDS011;51090;51.512;11.332;2023-07-13T09:20:57;0.40;;;0.30;;
64674;SDS011;51090;51.512;11.332;2023-07-13T09:23:27;0.55;;;0.45;;
64674;SDS011;51090;51.512;11.332;2023-07-13T09:25:55;0.40;;;0.32;;
64674;SDS011;51090;51.512;11.332;2023-07-13T09:28:59;0.95;;;0.50;;
64674;SDS011;51090;51.512;11.332;2023-07-13T09:31:39;1.83;;;0.40;;
64674;SDS011;51090;51.512;11.332;2023-07-13T09:34:10;0.57;;;0.30;;
64674;SDS011;51090;51.512;11.332;2023-07-13T09:36:38;0.38;;;0.30;;
64674;SDS011;51090;51.512;11.332;2023-07-13T09:41:37;3.63;;;0.55;;
64674;SDS011;51090;51.512;11.332;2023-07-13T09:44:27;1.27;;;0.40;;
64674;SDS011;51090;51.512;11.332;2023-07-13T09:47:00;0.45;;;0.30;;
64674;SDS011;51090;51.512;11.332;2023-07-13T09:49:28;0.28;;;0.10;;
64674;SDS011;51090;51.512;11.332;2023-07-13T09:52:05;0.35;;;0.20;;
64674;SDS011;51090;51.512;11.332;2023-07-13T09:54:36;1.23;;;0.30;;
64674;SDS011;51090;51.512;11.332;2023-07-13T09:57:03;2.83;;;0.47;;
64674;SDS011;51090;51.512;11.332;2023-07-13T09:59:42;0.20;;;0.10;;
64674;SDS011;51090;51.512;11.332;2023-07-13T10:02:28;0.70;;;0.35;;
64674;SDS011;51090;51.512;11.332;2023-07-13T10:05:01;0.10;;;0.10;;
64674;SDS011;51090;51.512;11.332;2023-07-13T10:07:30;0.30;;;0.28;;
64674;SDS011;51090;51.512;11.332;2023-07-13T10:09:59;2.78;;;0.40;;
64674;SDS011;51090;51.512;11.332;2023-07-13T10:12:26;0.50;;;0.20;;
64674;SDS011;51090;51.512;11.332;2023-07-13T10:14:56;0.20;;;0.10;;
64674;SDS011;51090;51.512;11.332;2023-07-13T10:17:26;0.63;;;0.30;;
64674;SDS011;51090;51.512;11.332;2023-07-13T10:19:55;1.27;;;0.20;;
64674;SDS011;51090;51.512;11.332;2023-07-13T10:25:26;3.25;;;0.30;;
64674;SDS011;51090;51.512;11.332;2023-07-13T10:27:58;0.13;;;0.13;;
64674;SDS011;51090;51.512;11.332;2023-07-13T10:30:58;1.08;;;0.20;;
64674;SDS011;51090;51.512;11.332;2023-07-13T10:33:26;0.73;;;0.30;;
64674;SDS011;51090;51.512;11.332;2023-07-13T10:35:54;1.88;;;0.22;;
64674;SDS011;51090;51.512;11.332;2023-07-13T10:38:39;0.77;;;0.57;;
64674;SDS011;51090;51.512;11.332;2023-07-13T10:41:08;0.68;;;0.38;;
64674;SDS011;51090;51.512;11.332;2023-07-13T10:43:44;0.28;;;0.15;;
64674;SDS011;51090;51.512;11.332;2023-07-13T10:46:16;0.65;;;0.35;;
64674;SDS011;51090;51.512;11.332;2023-07-13T10:48:46;1.15;;;0.30;;
64674;SDS011;51090;51.512;11.332;2023-07-13T10:51:17;2.25;;;0.40;;
64674;SDS011;51090;51.512;11.332;2023-07-13T10:53:46;1.10;;;0.60;;
64674;SDS011;51090;51.512;11.332;2023-07-13T10:56:19;0.13;;;0.13;;
64674;SDS011;51090;51.512;11.332;2023-07-13T11:01:48;1.58;;;0.40;;
64674;SDS011;51090;51.512;11.332;2023-07-13T11:04:24;0.55;;;0.40;;
64674;SDS011;51090;51.512;11.332;2023-07-13T11:06:58;0.28;;;0.20;;
64674;SDS011;51090;51.512;11.332;2023-07-13T11:09:38;0.55;;;0.20;;
64674;SDS011;51090;51.512;11.332;2023-07-13T11:12:49;0.82;;;0.30;;
64674;SDS011;51090;51.512;11.332;2023-07-13T11:15:26;0.65;;;0.30;;
64674;SDS011;51090;51.512;11.332;2023-07-13T11:18:19;2.53;;;0.40;;
64674;SDS011;51090;51.512;11.332;2023-07-13T11:20:48;0.98;;;0.30;;
64674;SDS011;51090;51.512;11.332;2023-07-13T11:25:43;0.55;;;0.22;;
64674;SDS011;51090;51.512;11.332;2023-07-13T11:30:39;0.32;;;0.30;;
64674;SDS011;51090;51.512;11.332;2023-07-13T11:33:15;0.70;;;0.40;;
64674;SDS011;51090;51.512;11.332;2023-07-13T11:36:15;3.30;;;0.70;;
64674;SDS011;51090;51.512;11.332;2023-07-13T11:38:47;1.00;;;0.40;;
64674;SDS011;51090;51.512;11.332;2023-07-13T11:41:45;0.52;;;0.32;;
64674;SDS011;51090;51.512;11.332;2023-07-13T11:44:21;0.77;;;0.30;;
64674;SDS011;51090;51.512;11.332;2023-07-13T11:46:53;0.53;;;0.33;;
64674;SDS011;51090;51.512;11.332;2023-07-13T11:49:22;1.40;;;0.32;;
64674;SDS011;51090;51.512;11.332;2023-07-13T11:51:51;1.23;;;0.50;;
64674;SDS011;51090;51.512;11.332;2023-07-13T11:54:28;0.75;;;0.40;;
64674;SDS011;51090;51.512;11.332;2023-07-13T11:57:16;3.05;;;0.30;;
64674;SDS011;51090;51.512;11.332;2023-07-13T11:59:56;1.08;;;0.50;;
64674;SDS011;51090;51.512;11.332;2023-07-13T12:02:29;0.70;;;0.40;;
64674;SDS011;51090;51.512;11.332;2023-07-13T12:05:03;0.70;;;0.50;;
64674;SDS011;51090;51.512;11.332;2023-07-13T12:07:31;1.70;;;0.32;;
64674;SDS011;51090;51.512;11.332;2023-07-13T12:10:13;0.65;;;0.40;;
64674;SDS011;51090;51.512;11.332;2023-07-13T12:15:28;0.68;;;0.35;;
64674;SDS011;51090;51.512;11.332;2023-07-13T12:18:15;3.60;;;0.63;;
64674;SDS011;51090;51.512;11.332;2023-07-13T12:20:45;0.28;;;0.28;;
64674;SDS011;51090;51.512;11.332;2023-07-13T12:23:31;1.20;;;0.47;;
64674;SDS011;51090;51.512;11.332;2023-07-13T12:26:06;0.50;;;0.35;;
64674;SDS011;51090;51.512;11.332;2023-07-13T12:31:37;0.95;;;0.38;;
64674;SDS011;51090;51.512;11.332;2023-07-13T12:34:13;1.00;;;0.38;;
64674;SDS011;51090;51.512;11.332;2023-07-13T12:36:45;0.30;;;0.30;;
64674;SDS011;51090;51.512;11.332;2023-07-13T12:39:28;1.10;;;0.47;;
64674;SDS011;51090;51.512;11.332;2023-07-13T12:42:17;0.75;;;0.35;;
64674;SDS011;51090;51.512;11.332;2023-07-13T12:44:48;0.75;;;0.40;;
64674;SDS011;51090;51.512;11.332;2023-07-13T12:47:15;1.02;;;0.55;;
64674;SDS011;51090;51.512;11.332;2023-07-13T12:49:42;1.15;;;0.40;;
64674;SDS011;51090;51.512;11.332;2023-07-13T12:52:36;1.20;;;0.60;;
64674;SDS011;51090;51.512;11.332;2023-07-13T12:55:06;2.40;;;0.50;;
64674;SDS011;51090;51.512;11.332;2023-07-13T12:57:42;1.58;;;0.50;;
64674;SDS011;51090;51.512;11.332;2023-07-13T13:00:23;0.73;;;0.40;;
64674;SDS011;51090;51.512;11.332;2023-07-13T13:03:06;0.38;;;0.32;;
64674;SDS011;51090;51.512;11.332;2023-07-13T13:05:46;3.22;;;0.75;;
64674;SDS011;51090;51.512;11.332;2023-07-13T13:08:12;3.65;;;0.45;;
64674;SDS011;51090;51.512;11.332;2023-07-13T13:10:38;1.95;;;0.47;;
64674;SDS011;51090;51.512;11.332;2023-07-13T13:13:04;0.68;;;0.28;;
64674;SDS011;51090;51.512;11.332;2023-07-13T13:15:30;1.00;;;0.35;;
64674;SDS011;51090;51.512;11.332;2023-07-13T13:17:56;1.35;;;0.00;;
64674;SDS011;51090;51.512;11.332;2023-07-13T13:20:24;0.70;;;0.30;;
64674;SDS011;51090;51.512;11.332;2023-07-13T13:22:50;0.75;;;0.10;;
64674;SDS011;51090;51.512;11.332;2023-07-13T13:25:17;0.40;;;0.20;;
64674;SDS011;51090;51.512;11.332;2023-07-13T13:27:44;0.15;;;0.15;;
64674;SDS011;51090;51.512;11.332;2023-07-13T13:30:15;1.75;;;0.20;;
64674;SDS011;51090;51.512;11.332;2023-07-13T13:32:43;0.52;;;0.20;;
64674;SDS011;51090;51.512;11.332;2023-07-13T13:35:15;22.55;;;1.95;;
64674;SDS011;51090;51.512;11.332;2023-07-13T13:37:43;1.13;;;0.30;;
64674;SDS011;51090;51.512;11.332;2023-07-13T13:40:14;0.85;;;0.30;;
64674;SDS011;51090;51.512;11.332;2023-07-13T13:42:43;2.08;;;0.35;;
64674;SDS011;51090;51.512;11.332;2023-07-13T13:45:09;0.40;;;0.20;;
64674;SDS011;51090;51.512;11.332;2023-07-13T13:47:37;0.85;;;0.20;;
64674;SDS011;51090;51.512;11.332;2023-07-13T13:50:12;2.95;;;0.43;;
64674;SDS011;51090;51.512;11.332;2023-07-13T13:52:43;0.75;;;0.25;;
64674;SDS011;51090;51.512;11.332;2023-07-13T13:55:13;1.25;;;0.30;;
64674;SDS011;51090;51.512;11.332;2023-07-13T13:57:45;0.93;;;0.35;;
64674;SDS011;51090;51.512;11.332;2023-07-13T14:00:12;2.70;;;0.15;;
64674;SDS011;51090;51.512;11.332;2023-07-13T14:02:46;1.90;;;0.20;;
64674;SDS011;51090;51.512;11.332;2023-07-13T14:05:22;0.60;;;0.15;;
64674;SDS011;51090;51.512;11.332;2023-07-13T14:07:53;0.10;;;0.08;;
64674;SDS011;51090;51.512;11.332;2023-07-13T14:10:20;0.90;;;0.38;;
64674;SDS011;51090;51.512;11.332;2023-07-13T14:12:47;0.90;;;0.20;;
64674;SDS011;51090;51.512;11.332;2023-07-13T14:17:52;1.70;;;0.30;;
64674;SDS011;51090;51.512;11.332;2023-07-13T14:20:19;0.82;;;0.20;;
64674;SDS011;51090;51.512;11.332;2023-07-13T14:22:49;0.80;;;0.50;;
64674;SDS011;51090;51.512;11.332;2023-07-13T14:25:16;0.43;;;0.25;;
64674;SDS011;51090;51.512;11.332;2023-07-13T14:27:43;0.77;;;0.30;;
64674;SDS011;51090;51.512;11.332;2023-07-13T14:30:20;1.15;;;0.38;;
64674;SDS011;51090;51.512;11.332;2023-07-13T14:32:47;0.63;;;0.20;;
64674;SDS011;51090;51.512;11.332;2023-07-13T14:35:14;0.47;;;0.10;;
64674;SDS011;51090;51.512;11.332;2023-07-13T14:37:43;1.92;;;0.35;;
64674;SDS011;51090;51.512;11.332;2023-07-13T14:42:40;1.50;;;0.15;;
64674;SDS011;51090;51.512;11.332;2023-07-13T14:45:11;0.10;;;0.10;;
64674;SDS011;51090;51.512;11.332;2023-07-13T14:47:43;0.20;;;0.10;;
64674;SDS011;51090;51.512;11.332;2023-07-13T14:50:16;0.38;;;0.10;;
64674;SDS011;51090;51.512;11.332;2023-07-13T14:52:52;0.43;;;0.13;;
64674;SDS011;51090;51.512;11.332;2023-07-13T14:55:18;5.25;;;0.40;;
64674;SDS011;51090;51.512;11.332;2023-07-13T14:57:44;0.32;;;0.20;;
64674;SDS011;51090;51.512;11.332;2023-07-13T15:00:18;1.50;;;0.40;;
64674;SDS011;51090;51.512;11.332;2023-07-13T15:02:50;1.85;;;0.38;;
64674;SDS011;51090;51.512;11.332;2023-07-13T15:05:22;1.20;;;0.40;;
64674;SDS011;51090;51.512;11.332;2023-07-13T15:07:52;0.82;;;0.38;;
64674;SDS011;51090;51.512;11.332;2023-07-13T15:10:19;2.15;;;0.28;;
64674;SDS011;51090;51.512;11.332;2023-07-13T15:12:51;4.63;;;0.30;;
64674;SDS011;51090;51.512;11.332;2023-07-13T15:15:18;1.13;;;0.35;;
64674;SDS011;51090;51.512;11.332;2023-07-13T15:17:45;0.10;;;0.10;;
64674;SDS011;51090;51.512;11.332;2023-07-13T15:20:21;0.43;;;0.30;;
64674;SDS011;51090;51.512;11.332;2023-07-13T15:22:57;0.85;;;0.25;;
64674;SDS011;51090;51.512;11.332;2023-07-13T15:25:24;0.68;;;0.10;;